THY2GF LTCD-LTAC
Flight info
| Callsign | THY2GF |
|---|---|
| Flight time | 0h 54m |
| Altitude | 26000 |
| Route | EZN UA4 GURBU |
| Aircraft | B732/M-SDFHIWY/S |
Departure
| Time | 2026-04-20 18:58 |
|---|---|
| Airport | Erzincan Airport (LTCD) |
Arrival
| Time | 2026-04-20 19:53 |
|---|---|
| Airport | Esenboğa International Airport (LTAC) |
| Time | Latitude | Longitude | Altitude | Speed | Heading |
|---|---|---|---|---|---|
| 2026-04-20 18:39 | 39.71664 | 39.52114 | 3792 ft | 0 kts | 21° |
| 2026-04-20 18:50 | 39.71662 | 39.52113 | 3792 ft | 1 kts | 21° |
| 2026-04-20 18:50 | 39.71648 | 39.52106 | 3792 ft | 2 kts | 21° |
| 2026-04-20 18:51 | 39.71634 | 39.52099 | 3792 ft | 2 kts | 21° |
| 2026-04-20 18:51 | 39.71619 | 39.52092 | 3792 ft | 2 kts | 21° |
| 2026-04-20 18:51 | 39.71605 | 39.52084 | 3792 ft | 2 kts | 21° |
| 2026-04-20 18:51 | 39.71590 | 39.52076 | 3792 ft | 2 kts | 46° |
| 2026-04-20 18:52 | 39.71583 | 39.52058 | 3792 ft | 2 kts | 78° |
| 2026-04-20 18:52 | 39.71583 | 39.52039 | 3792 ft | 0 kts | 107° |
| 2026-04-20 18:52 | 39.71585 | 39.52032 | 3792 ft | 1 kts | 113° |
| 2026-04-20 18:52 | 39.71586 | 39.52030 | 3792 ft | 0 kts | 112° |
| 2026-04-20 18:54 | 39.71585 | 39.52032 | 3792 ft | 1 kts | 112° |
| 2026-04-20 18:54 | 39.71571 | 39.52077 | 3792 ft | 9 kts | 111° |
| 2026-04-20 18:54 | 39.71495 | 39.52097 | 3792 ft | 17 kts | 201° |
| 2026-04-20 18:54 | 39.71346 | 39.52024 | 3792 ft | 26 kts | 201° |
| 2026-04-20 18:55 | 39.71273 | 39.52081 | 3792 ft | 16 kts | 110° |
| 2026-04-20 18:55 | 39.71220 | 39.52271 | 3792 ft | 27 kts | 110° |
| 2026-04-20 18:55 | 39.71137 | 39.52556 | 3792 ft | 36 kts | 110° |
| 2026-04-20 18:55 | 39.71047 | 39.52875 | 3792 ft | 37 kts | 111° |
| 2026-04-20 18:56 | 39.70951 | 39.53205 | 3792 ft | 37 kts | 111° |
| 2026-04-20 18:56 | 39.70856 | 39.53521 | 3792 ft | 36 kts | 112° |
| 2026-04-20 18:56 | 39.70774 | 39.53835 | 3792 ft | 35 kts | 108° |
| 2026-04-20 18:56 | 39.70685 | 39.54136 | 3792 ft | 33 kts | 106° |
| 2026-04-20 18:57 | 39.70676 | 39.54351 | 3792 ft | 7 kts | 157° |
| 2026-04-20 18:57 | 39.70638 | 39.54318 | 3792 ft | 8 kts | 253° |
| 2026-04-20 18:57 | 39.70645 | 39.54268 | 3792 ft | 0 kts | 290° |
| 2026-04-20 18:57 | 39.70649 | 39.54254 | 3792 ft | 11 kts | 290° |
| 2026-04-20 18:58 | 39.70763 | 39.53865 | 3792 ft | 79 kts | 290° |
| 2026-04-20 18:58 | 39.71038 | 39.52920 | 3792 ft | 141 kts | 291° |
| 2026-04-20 18:58 | 39.71429 | 39.51566 | 4132 ft | 163 kts | 288° |
| 2026-04-20 18:58 | 39.71976 | 39.50213 | 4694 ft | 174 kts | 307° |
| 2026-04-20 18:59 | 39.72684 | 39.48824 | 5178 ft | 185 kts | 301° |
| 2026-04-20 18:59 | 39.73365 | 39.47329 | 5731 ft | 193 kts | 302° |
| 2026-04-20 18:59 | 39.74091 | 39.45769 | 6253 ft | 205 kts | 302° |
| 2026-04-20 18:59 | 39.74851 | 39.44134 | 6826 ft | 216 kts | 302° |
| 2026-04-20 19:00 | 39.75684 | 39.42336 | 7257 ft | 235 kts | 301° |
| 2026-04-20 19:00 | 39.76563 | 39.40428 | 7708 ft | 254 kts | 301° |
| 2026-04-20 19:00 | 39.77541 | 39.38304 | 8125 ft | 276 kts | 301° |
| 2026-04-20 19:00 | 39.78563 | 39.36084 | 8828 ft | 285 kts | 301° |
| 2026-04-20 19:01 | 39.79599 | 39.33820 | 9688 ft | 287 kts | 300° |
| 2026-04-20 19:01 | 39.80655 | 39.31478 | 10149 ft | 304 kts | 300° |
| 2026-04-20 19:01 | 39.81781 | 39.28994 | 10677 ft | 317 kts | 300° |
| 2026-04-20 19:01 | 39.82846 | 39.26653 | 11410 ft | 320 kts | 300° |
| 2026-04-20 19:02 | 39.83930 | 39.24275 | 12158 ft | 322 kts | 300° |
| 2026-04-20 19:02 | 39.85116 | 39.21677 | 12829 ft | 328 kts | 300° |
| 2026-04-20 19:02 | 39.85963 | 39.18887 | 13492 ft | 332 kts | 279° |
| 2026-04-20 19:02 | 39.85991 | 39.15824 | 14179 ft | 335 kts | 268° |
| 2026-04-20 19:03 | 39.86304 | 39.12755 | 14837 ft | 338 kts | 283° |
| 2026-04-20 19:03 | 39.86956 | 39.09768 | 15564 ft | 338 kts | 288° |
| 2026-04-20 19:03 | 39.87721 | 39.06812 | 16237 ft | 340 kts | 289° |
| 2026-04-20 19:03 | 39.88444 | 39.04018 | 16808 ft | 343 kts | 288° |
| 2026-04-20 19:04 | 39.89202 | 39.01015 | 17389 ft | 346 kts | 288° |
| 2026-04-20 19:04 | 39.90041 | 38.97990 | 17950 ft | 349 kts | 291° |
| 2026-04-20 19:04 | 39.90854 | 38.94933 | 18502 ft | 352 kts | 288° |
| 2026-04-20 19:04 | 39.91649 | 38.91833 | 19059 ft | 354 kts | 287° |
| 2026-04-20 19:05 | 39.92094 | 38.88589 | 19582 ft | 356 kts | 279° |
| 2026-04-20 19:05 | 39.92538 | 38.85347 | 20102 ft | 358 kts | 276° |
| 2026-04-20 19:05 | 39.92707 | 38.82037 | 20599 ft | 360 kts | 270° |
| 2026-04-20 19:05 | 39.92671 | 38.78681 | 21087 ft | 363 kts | 267° |
| 2026-04-20 19:06 | 39.92537 | 38.75341 | 21593 ft | 364 kts | 265° |
| 2026-04-20 19:06 | 39.92355 | 38.71978 | 22124 ft | 364 kts | 264° |
| 2026-04-20 19:06 | 39.92147 | 38.68592 | 22587 ft | 366 kts | 264° |
| 2026-04-20 19:06 | 39.91929 | 38.65233 | 22993 ft | 369 kts | 264° |
| 2026-04-20 19:07 | 39.91699 | 38.61779 | 23416 ft | 372 kts | 264° |
| 2026-04-20 19:07 | 39.91470 | 38.58355 | 23830 ft | 374 kts | 264° |
| 2026-04-20 19:07 | 39.91237 | 38.54910 | 24228 ft | 376 kts | 263° |
| 2026-04-20 19:07 | 39.91000 | 38.51434 | 24614 ft | 378 kts | 263° |
| 2026-04-20 19:08 | 39.90760 | 38.47943 | 24988 ft | 381 kts | 263° |
| 2026-04-20 19:08 | 39.90275 | 38.40933 | 25706 ft | 385 kts | 263° |
| 2026-04-20 19:08 | 39.90026 | 38.37368 | 25965 ft | 389 kts | 263° |
| 2026-04-20 19:09 | 39.89773 | 38.33759 | 25968 ft | 395 kts | 263° |
| 2026-04-20 19:09 | 39.89517 | 38.30118 | 25973 ft | 399 kts | 263° |
| 2026-04-20 19:09 | 39.89258 | 38.26439 | 25972 ft | 402 kts | 263° |
| 2026-04-20 19:09 | 39.88993 | 38.22703 | 25980 ft | 406 kts | 263° |
| 2026-04-20 19:10 | 39.88720 | 38.18908 | 26026 ft | 409 kts | 263° |
| 2026-04-20 19:10 | 39.88450 | 38.15135 | 26027 ft | 414 kts | 263° |
| 2026-04-20 19:10 | 39.88175 | 38.11311 | 26028 ft | 418 kts | 263° |
| 2026-04-20 19:10 | 39.87896 | 38.07446 | 26027 ft | 423 kts | 263° |
| 2026-04-20 19:11 | 39.87613 | 38.03551 | 26027 ft | 427 kts | 264° |
| 2026-04-20 19:11 | 39.87323 | 37.99575 | 26026 ft | 431 kts | 264° |
| 2026-04-20 19:11 | 39.87033 | 37.95616 | 26025 ft | 434 kts | 264° |
| 2026-04-20 19:11 | 39.86736 | 37.91586 | 26024 ft | 437 kts | 264° |
| 2026-04-20 19:12 | 39.86440 | 37.87603 | 26023 ft | 439 kts | 264° |
| 2026-04-20 19:12 | 39.86140 | 37.83562 | 26023 ft | 441 kts | 264° |
| 2026-04-20 19:12 | 39.85836 | 37.79494 | 26023 ft | 443 kts | 264° |
| 2026-04-20 19:12 | 39.85527 | 37.75373 | 26023 ft | 445 kts | 264° |
| 2026-04-20 19:13 | 39.85217 | 37.71312 | 26022 ft | 447 kts | 264° |
| 2026-04-20 19:13 | 39.84901 | 37.67189 | 26023 ft | 448 kts | 265° |
| 2026-04-20 19:13 | 39.84586 | 37.63026 | 26021 ft | 449 kts | 265° |
| 2026-04-20 19:13 | 39.84274 | 37.58914 | 26020 ft | 451 kts | 265° |
| 2026-04-20 19:14 | 39.83978 | 37.55037 | 26020 ft | 452 kts | 265° |
| 2026-04-20 19:14 | 39.83655 | 37.50848 | 26020 ft | 453 kts | 265° |
| 2026-04-20 19:14 | 39.83334 | 37.46700 | 26020 ft | 455 kts | 265° |
| 2026-04-20 19:14 | 39.83008 | 37.42523 | 26019 ft | 456 kts | 265° |
| 2026-04-20 19:15 | 39.82678 | 37.38314 | 26020 ft | 457 kts | 266° |
| 2026-04-20 19:15 | 39.82347 | 37.34093 | 26021 ft | 458 kts | 265° |
| 2026-04-20 19:15 | 39.82017 | 37.29915 | 26021 ft | 459 kts | 265° |
| 2026-04-20 19:15 | 39.81682 | 37.25677 | 26022 ft | 461 kts | 265° |
| 2026-04-20 19:16 | 39.81344 | 37.21475 | 26022 ft | 462 kts | 266° |
| 2026-04-20 19:16 | 39.80996 | 37.17189 | 26018 ft | 463 kts | 266° |
| 2026-04-20 19:16 | 39.80657 | 37.12944 | 26020 ft | 463 kts | 266° |
| 2026-04-20 19:16 | 39.80317 | 37.08709 | 26020 ft | 464 kts | 266° |
| 2026-04-20 19:17 | 39.80013 | 37.04947 | 26020 ft | 465 kts | 266° |
| 2026-04-20 19:17 | 39.79665 | 37.00682 | 26020 ft | 466 kts | 266° |
| 2026-04-20 19:17 | 39.79316 | 36.96421 | 26020 ft | 466 kts | 266° |
| 2026-04-20 19:17 | 39.78989 | 36.92137 | 26011 ft | 465 kts | 270° |
| 2026-04-20 19:18 | 39.79134 | 36.87892 | 26025 ft | 460 kts | 278° |
| 2026-04-20 19:18 | 39.79554 | 36.83686 | 26018 ft | 459 kts | 281° |
| 2026-04-20 19:18 | 39.80073 | 36.79488 | 26019 ft | 458 kts | 282° |
| 2026-04-20 19:18 | 39.80618 | 36.75344 | 26018 ft | 457 kts | 282° |
| 2026-04-20 19:19 | 39.81179 | 36.71150 | 26020 ft | 457 kts | 282° |
| 2026-04-20 19:19 | 39.81736 | 36.67028 | 26018 ft | 456 kts | 283° |
| 2026-04-20 19:19 | 39.82301 | 36.62838 | 26018 ft | 455 kts | 283° |
| 2026-04-20 19:19 | 39.82856 | 36.58701 | 26018 ft | 455 kts | 282° |
| 2026-04-20 19:20 | 39.83414 | 36.54539 | 26018 ft | 454 kts | 283° |
| 2026-04-20 19:20 | 39.83971 | 36.50376 | 26018 ft | 454 kts | 283° |
| 2026-04-20 19:20 | 39.84526 | 36.46216 | 26018 ft | 453 kts | 283° |
| 2026-04-20 19:20 | 39.85074 | 36.42094 | 26018 ft | 453 kts | 283° |
| 2026-04-20 19:21 | 39.85624 | 36.37947 | 26043 ft | 452 kts | 283° |
| 2026-04-20 19:21 | 39.86167 | 36.33836 | 26044 ft | 452 kts | 282° |
| 2026-04-20 19:21 | 39.86694 | 36.29836 | 26046 ft | 451 kts | 282° |
| 2026-04-20 19:21 | 39.87235 | 36.25725 | 26046 ft | 451 kts | 282° |
| 2026-04-20 19:22 | 39.87779 | 36.21596 | 26046 ft | 451 kts | 282° |
| 2026-04-20 19:22 | 39.88312 | 36.17516 | 26046 ft | 450 kts | 282° |
| 2026-04-20 19:22 | 39.88845 | 36.13409 | 26046 ft | 450 kts | 282° |
| 2026-04-20 19:22 | 39.89377 | 36.09316 | 26046 ft | 450 kts | 282° |
| 2026-04-20 19:23 | 39.89912 | 36.05181 | 26046 ft | 450 kts | 282° |
| 2026-04-20 19:23 | 39.90439 | 36.01100 | 26046 ft | 450 kts | 282° |
| 2026-04-20 19:23 | 39.90970 | 35.96977 | 26046 ft | 450 kts | 282° |
| 2026-04-20 19:23 | 39.91497 | 35.92869 | 26046 ft | 449 kts | 282° |
| 2026-04-20 19:24 | 39.91981 | 35.89091 | 26046 ft | 449 kts | 282° |
| 2026-04-20 19:24 | 39.92508 | 35.84965 | 26046 ft | 449 kts | 282° |
| 2026-04-20 19:24 | 39.93009 | 35.81031 | 26045 ft | 449 kts | 282° |
| 2026-04-20 19:24 | 39.93511 | 35.77079 | 26045 ft | 449 kts | 282° |
| 2026-04-20 19:25 | 39.94031 | 35.72983 | 26046 ft | 449 kts | 281° |
| 2026-04-20 19:25 | 39.94558 | 35.68831 | 26047 ft | 448 kts | 281° |
| 2026-04-20 19:25 | 39.95068 | 35.64759 | 26045 ft | 448 kts | 281° |
| 2026-04-20 19:25 | 39.95581 | 35.60662 | 26045 ft | 448 kts | 281° |
| 2026-04-20 19:26 | 39.96093 | 35.56568 | 26045 ft | 448 kts | 281° |
| 2026-04-20 19:26 | 39.96603 | 35.52472 | 26045 ft | 448 kts | 281° |
| 2026-04-20 19:26 | 39.97081 | 35.48638 | 26045 ft | 448 kts | 281° |
| 2026-04-20 19:26 | 39.97585 | 35.44574 | 26045 ft | 448 kts | 281° |
| 2026-04-20 19:27 | 39.98093 | 35.40465 | 26045 ft | 447 kts | 281° |
| 2026-04-20 19:27 | 39.98601 | 35.36348 | 26045 ft | 447 kts | 281° |
| 2026-04-20 19:27 | 39.99069 | 35.32543 | 26038 ft | 447 kts | 280° |
| 2026-04-20 19:27 | 39.99536 | 35.28738 | 26019 ft | 448 kts | 280° |
| 2026-04-20 19:28 | 40.00030 | 35.24688 | 26020 ft | 448 kts | 280° |
| 2026-04-20 19:28 | 40.00534 | 35.20572 | 26021 ft | 447 kts | 280° |
| 2026-04-20 19:28 | 40.01033 | 35.16462 | 26019 ft | 447 kts | 280° |
| 2026-04-20 19:28 | 40.01532 | 35.12332 | 26019 ft | 447 kts | 280° |
| 2026-04-20 19:29 | 40.02024 | 35.08252 | 26019 ft | 447 kts | 280° |
| 2026-04-20 19:29 | 40.02467 | 35.04572 | 26019 ft | 447 kts | 280° |
| 2026-04-20 19:29 | 40.02953 | 35.00519 | 26019 ft | 447 kts | 280° |
| 2026-04-20 19:29 | 40.03445 | 34.96407 | 26019 ft | 447 kts | 280° |
| 2026-04-20 19:30 | 40.03905 | 34.92547 | 26019 ft | 447 kts | 280° |
| 2026-04-20 19:30 | 40.04388 | 34.88493 | 26018 ft | 447 kts | 280° |
| 2026-04-20 19:30 | 40.04875 | 34.84383 | 26019 ft | 447 kts | 280° |
| 2026-04-20 19:30 | 40.05325 | 34.80584 | 26018 ft | 446 kts | 280° |
| 2026-04-20 19:31 | 40.05774 | 34.76774 | 26019 ft | 446 kts | 280° |
| 2026-04-20 19:31 | 40.06256 | 34.72680 | 26018 ft | 446 kts | 280° |
| 2026-04-20 19:31 | 40.06736 | 34.68594 | 26019 ft | 446 kts | 280° |
| 2026-04-20 19:31 | 40.07214 | 34.64492 | 26019 ft | 446 kts | 280° |
| 2026-04-20 19:32 | 40.07688 | 34.60418 | 26011 ft | 439 kts | 280° |
| 2026-04-20 19:32 | 40.08147 | 34.56458 | 25880 ft | 425 kts | 280° |
| 2026-04-20 19:32 | 40.08600 | 34.52544 | 25226 ft | 424 kts | 280° |
| 2026-04-20 19:32 | 40.09047 | 34.48676 | 24543 ft | 423 kts | 280° |
| 2026-04-20 19:33 | 40.09493 | 34.44797 | 23952 ft | 421 kts | 280° |
| 2026-04-20 19:33 | 40.09932 | 34.40983 | 23391 ft | 417 kts | 280° |
| 2026-04-20 19:33 | 40.10373 | 34.37132 | 22839 ft | 414 kts | 280° |
| 2026-04-20 19:33 | 40.10806 | 34.33337 | 22297 ft | 410 kts | 279° |
| 2026-04-20 19:34 | 40.11234 | 34.29577 | 21754 ft | 407 kts | 279° |
| 2026-04-20 19:34 | 40.11656 | 34.25852 | 21218 ft | 404 kts | 279° |
| 2026-04-20 19:34 | 40.12077 | 34.22133 | 20662 ft | 401 kts | 279° |
| 2026-04-20 19:34 | 40.12498 | 34.18397 | 20081 ft | 399 kts | 279° |
| 2026-04-20 19:35 | 40.12907 | 34.14743 | 19556 ft | 396 kts | 279° |
| 2026-04-20 19:35 | 40.13313 | 34.11115 | 19039 ft | 393 kts | 279° |
| 2026-04-20 19:35 | 40.13718 | 34.07488 | 18513 ft | 390 kts | 279° |
| 2026-04-20 19:35 | 40.14117 | 34.03905 | 17992 ft | 387 kts | 279° |
| 2026-04-20 19:36 | 40.14509 | 34.00368 | 17475 ft | 384 kts | 279° |
| 2026-04-20 19:36 | 40.14897 | 33.96836 | 16991 ft | 382 kts | 279° |
| 2026-04-20 19:36 | 40.15282 | 33.93332 | 16564 ft | 379 kts | 279° |
| 2026-04-20 19:36 | 40.15659 | 33.89850 | 16131 ft | 377 kts | 279° |
| 2026-04-20 19:37 | 40.16030 | 33.86372 | 15697 ft | 374 kts | 279° |
| 2026-04-20 19:37 | 40.16485 | 33.82972 | 15261 ft | 372 kts | 283° |
| 2026-04-20 19:37 | 40.17053 | 33.79602 | 14835 ft | 369 kts | 283° |
| 2026-04-20 19:37 | 40.17541 | 33.76295 | 14621 ft | 359 kts | 281° |
| 2026-04-20 19:38 | 40.17969 | 33.73031 | 14392 ft | 350 kts | 280° |
| 2026-04-20 19:38 | 40.18354 | 33.69839 | 13971 ft | 347 kts | 280° |
| 2026-04-20 19:38 | 40.18715 | 33.66650 | 13492 ft | 346 kts | 279° |
| 2026-04-20 19:38 | 40.19062 | 33.63458 | 13027 ft | 344 kts | 279° |
| 2026-04-20 19:39 | 40.19394 | 33.60300 | 12580 ft | 342 kts | 279° |
| 2026-04-20 19:39 | 40.19721 | 33.57125 | 12132 ft | 341 kts | 279° |
| 2026-04-20 19:39 | 40.20038 | 33.53992 | 11711 ft | 338 kts | 279° |
| 2026-04-20 19:39 | 40.20339 | 33.50948 | 11603 ft | 326 kts | 278° |
| 2026-04-20 19:40 | 40.20630 | 33.47948 | 11361 ft | 319 kts | 279° |
| 2026-04-20 19:40 | 40.20916 | 33.44985 | 11005 ft | 316 kts | 279° |
| 2026-04-20 19:40 | 40.21194 | 33.42112 | 10772 ft | 309 kts | 278° |
| 2026-04-20 19:40 | 40.21471 | 33.39260 | 10560 ft | 303 kts | 278° |
| 2026-04-20 19:41 | 40.21735 | 33.36509 | 10421 ft | 293 kts | 279° |
| 2026-04-20 19:41 | 40.21987 | 33.33866 | 10369 ft | 282 kts | 278° |
| 2026-04-20 19:41 | 40.22226 | 33.31257 | 10108 ft | 280 kts | 278° |
| 2026-04-20 19:41 | 40.22467 | 33.28651 | 9765 ft | 280 kts | 278° |
| 2026-04-20 19:42 | 40.22707 | 33.26076 | 9506 ft | 277 kts | 278° |
| 2026-04-20 19:42 | 40.22944 | 33.23564 | 9337 ft | 261 kts | 277° |
| 2026-04-20 19:42 | 40.23160 | 33.21259 | 9260 ft | 241 kts | 277° |
| 2026-04-20 19:42 | 40.23363 | 33.19091 | 9055 ft | 229 kts | 277° |
| 2026-04-20 19:43 | 40.23563 | 33.16976 | 8573 ft | 231 kts | 277° |
| 2026-04-20 19:43 | 40.23719 | 33.14822 | 8109 ft | 231 kts | 269° |
| 2026-04-20 19:43 | 40.23234 | 33.12781 | 7777 ft | 235 kts | 235° |
| 2026-04-20 19:43 | 40.21957 | 33.11410 | 7570 ft | 235 kts | 203° |
| 2026-04-20 19:44 | 40.20324 | 33.11155 | 7332 ft | 236 kts | 170° |
| 2026-04-20 19:44 | 40.18814 | 33.12104 | 7084 ft | 239 kts | 137° |
| 2026-04-20 19:44 | 40.17930 | 33.13968 | 6897 ft | 239 kts | 104° |
| 2026-04-20 19:44 | 40.17946 | 33.16151 | 6729 ft | 237 kts | 71° |
| 2026-04-20 19:45 | 40.18850 | 33.17960 | 6613 ft | 231 kts | 40° |
| 2026-04-20 19:45 | 40.20126 | 33.19244 | 6591 ft | 223 kts | 29° |
| 2026-04-20 19:45 | 40.21513 | 33.20236 | 6596 ft | 221 kts | 26° |
| 2026-04-20 19:45 | 40.22919 | 33.21196 | 6594 ft | 221 kts | 25° |
| 2026-04-20 19:46 | 40.24327 | 33.22154 | 6595 ft | 221 kts | 25° |
| 2026-04-20 19:46 | 40.25728 | 33.23107 | 6596 ft | 221 kts | 26° |
| 2026-04-20 19:46 | 40.27145 | 33.24048 | 6590 ft | 221 kts | 20° |
| 2026-04-20 19:46 | 40.28722 | 33.24307 | 6347 ft | 229 kts | 351° |
| 2026-04-20 19:47 | 40.30263 | 33.23687 | 6191 ft | 231 kts | 329° |
| 2026-04-20 19:47 | 40.31489 | 33.22356 | 6143 ft | 220 kts | 301° |
| 2026-04-20 19:47 | 40.31980 | 33.20452 | 5999 ft | 211 kts | 270° |
| 2026-04-20 19:47 | 40.31670 | 33.18612 | 5986 ft | 197 kts | 237° |
| 2026-04-20 19:48 | 40.30738 | 33.17282 | 6020 ft | 194 kts | 224° |
| 2026-04-20 19:48 | 40.29745 | 33.16029 | 5994 ft | 197 kts | 223° |
| 2026-04-20 19:48 | 40.28706 | 33.14783 | 5997 ft | 199 kts | 217° |
| 2026-04-20 19:48 | 40.27558 | 33.13707 | 6005 ft | 199 kts | 215° |
| 2026-04-20 19:49 | 40.26408 | 33.12642 | 6021 ft | 193 kts | 215° |
| 2026-04-20 19:49 | 40.25312 | 33.11610 | 5970 ft | 191 kts | 216° |
| 2026-04-20 19:49 | 40.24197 | 33.10515 | 5645 ft | 200 kts | 216° |
| 2026-04-20 19:49 | 40.23063 | 33.09426 | 5452 ft | 187 kts | 217° |
| 2026-04-20 19:50 | 40.22083 | 33.08470 | 5354 ft | 163 kts | 218° |
| 2026-04-20 19:50 | 40.21148 | 33.07572 | 4997 ft | 162 kts | 216° |
| 2026-04-20 19:50 | 40.20196 | 33.06760 | 4719 ft | 155 kts | 213° |
| 2026-04-20 19:50 | 40.19328 | 33.06047 | 4514 ft | 138 kts | 216° |
| 2026-04-20 19:51 | 40.18537 | 33.05264 | 4259 ft | 139 kts | 216° |
| 2026-04-20 19:51 | 40.17764 | 33.04491 | 4096 ft | 136 kts | 216° |
| 2026-04-20 19:51 | 40.16996 | 33.03708 | 3920 ft | 138 kts | 218° |
| 2026-04-20 19:51 | 40.16224 | 33.02936 | 3713 ft | 136 kts | 216° |
| 2026-04-20 19:52 | 40.15443 | 33.02184 | 3505 ft | 137 kts | 216° |
| 2026-04-20 19:52 | 40.14664 | 33.01426 | 3313 ft | 135 kts | 216° |
| 2026-04-20 19:52 | 40.13891 | 33.00685 | 3153 ft | 135 kts | 216° |
| 2026-04-20 19:52 | 40.13189 | 33.00017 | 3137 ft | 107 kts | 217° |
| 2026-04-20 19:53 | 40.12658 | 32.99508 | 3130 ft | 80 kts | 216° |
| 2026-04-20 19:53 | 40.12281 | 32.99206 | 3126 ft | 52 kts | 188° |
| 2026-04-20 19:53 | 40.11995 | 32.99163 | 3129 ft | 28 kts | 199° |
| 2026-04-20 19:53 | 40.11828 | 32.99019 | 3126 ft | 28 kts | 216° |
| 2026-04-20 19:54 | 40.11675 | 32.98882 | 3123 ft | 17 kts | 194° |
| 2026-04-20 19:54 | 40.11619 | 32.98946 | 3124 ft | 9 kts | 147° |
| 2026-04-20 19:54 | 40.11566 | 32.98912 | 3124 ft | 9 kts | 226° |
| 2026-04-20 19:54 | 40.11509 | 32.98852 | 3123 ft | 10 kts | 210° |
| 2026-04-20 19:55 | 40.11472 | 32.98885 | 3123 ft | 5 kts | 121° |
| 2026-04-20 19:55 | 40.11455 | 32.98916 | 3124 ft | 0 kts | 127° |